sensor_id;sensor_type;location;lat;lon;timestamp;temperature;humidity
612;DHT22;293;53.888;11.464;2022-07-29T00:01:46;13.90;96.50
612;DHT22;293;53.888;11.464;2022-07-29T00:04:15;13.80;96.60
612;DHT22;293;53.888;11.464;2022-07-29T00:06:42;13.80;96.70
612;DHT22;293;53.888;11.464;2022-07-29T00:09:09;13.80;97.00
612;DHT22;293;53.888;11.464;2022-07-29T00:11:36;13.80;96.70
612;DHT22;293;53.888;11.464;2022-07-29T00:14:03;13.70;96.80
612;DHT22;293;53.888;11.464;2022-07-29T00:16:30;13.70;96.90
612;DHT22;293;53.888;11.464;2022-07-29T00:18:57;13.70;96.90
612;DHT22;293;53.888;11.464;2022-07-29T00:21:25;13.70;97.00
612;DHT22;293;53.888;11.464;2022-07-29T00:23:52;13.60;97.00
612;DHT22;293;53.888;11.464;2022-07-29T00:26:19;13.60;97.00
612;DHT22;293;53.888;11.464;2022-07-29T00:28:46;13.60;97.00
612;DHT22;293;53.888;11.464;2022-07-29T00:31:13;13.50;97.20
612;DHT22;293;53.888;11.464;2022-07-29T00:33:39;13.50;97.30
612;DHT22;293;53.888;11.464;2022-07-29T00:36:06;13.40;97.20
612;DHT22;293;53.888;11.464;2022-07-29T00:38:34;13.40;97.20
612;DHT22;293;53.888;11.464;2022-07-29T00:41:00;13.30;97.20
612;DHT22;293;53.888;11.464;2022-07-29T00:43:27;13.30;97.40
612;DHT22;293;53.888;11.464;2022-07-29T00:45:54;13.30;97.40
612;DHT22;293;53.888;11.464;2022-07-29T00:48:21;13.20;97.40
612;DHT22;293;53.888;11.464;2022-07-29T00:50:49;13.20;97.60
612;DHT22;293;53.888;11.464;2022-07-29T00:53:16;13.20;97.90
612;DHT22;293;53.888;11.464;2022-07-29T00:55:45;13.10;98.10
612;DHT22;293;53.888;11.464;2022-07-29T00:58:12;13.10;98.00
612;DHT22;293;53.888;11.464;2022-07-29T01:00:39;13.10;98.10
612;DHT22;293;53.888;11.464;2022-07-29T01:03:07;13.00;98.10
612;DHT22;293;53.888;11.464;2022-07-29T01:05:34;13.00;98.10
612;DHT22;293;53.888;11.464;2022-07-29T01:08:02;13.00;98.40
612;DHT22;293;53.888;11.464;2022-07-29T01:10:29;12.90;98.10
612;DHT22;293;53.888;11.464;2022-07-29T01:12:59;12.90;98.20
612;DHT22;293;53.888;11.464;2022-07-29T01:15:28;12.90;98.30
612;DHT22;293;53.888;11.464;2022-07-29T01:18:03;12.80;98.10
612;DHT22;293;53.888;11.464;2022-07-29T01:20:43;12.80;98.40
612;DHT22;293;53.888;11.464;2022-07-29T01:23:42;12.80;98.70
612;DHT22;293;53.888;11.464;2022-07-29T01:29:27;12.70;99.00
612;DHT22;293;53.888;11.464;2022-07-29T01:31:58;12.70;98.90
612;DHT22;293;53.888;11.464;2022-07-29T01:34:30;12.70;99.00
612;DHT22;293;53.888;11.464;2022-07-29T01:37:04;12.70;99.10
612;DHT22;293;53.888;11.464;2022-07-29T01:39:33;12.60;99.00
612;DHT22;293;53.888;11.464;2022-07-29T01:42:08;12.60;99.20
612;DHT22;293;53.888;11.464;2022-07-29T01:44:43;12.60;99.20
612;DHT22;293;53.888;11.464;2022-07-29T01:47:15;12.60;99.20
612;DHT22;293;53.888;11.464;2022-07-29T01:49:49;12.60;99.20
612;DHT22;293;53.888;11.464;2022-07-29T01:52:21;12.60;99.30
612;DHT22;293;53.888;11.464;2022-07-29T01:54:53;12.60;99.50
612;DHT22;293;53.888;11.464;2022-07-29T01:57:26;12.50;99.60
612;DHT22;293;53.888;11.464;2022-07-29T01:59:56;12.60;99.70
612;DHT22;293;53.888;11.464;2022-07-29T02:02:26;12.50;99.60
612;DHT22;293;53.888;11.464;2022-07-29T02:04:55;12.50;99.60
612;DHT22;293;53.888;11.464;2022-07-29T02:07:24;12.50;99.60
612;DHT22;293;53.888;11.464;2022-07-29T02:09:54;12.50;99.60
612;DHT22;293;53.888;11.464;2022-07-29T02:12:24;12.50;99.70
612;DHT22;293;53.888;11.464;2022-07-29T02:14:54;12.50;99.90
612;DHT22;293;53.888;11.464;2022-07-29T02:17:26;12.40;99.80
612;DHT22;293;53.888;11.464;2022-07-29T02:19:57;12.40;99.80
612;DHT22;293;53.888;11.464;2022-07-29T02:22:27;12.40;99.80
612;DHT22;293;53.888;11.464;2022-07-29T02:24:55;12.40;99.80
612;DHT22;293;53.888;11.464;2022-07-29T02:27:22;12.40;99.90
612;DHT22;293;53.888;11.464;2022-07-29T02:29:50;12.40;99.80
612;DHT22;293;53.888;11.464;2022-07-29T02:32:20;12.40;99.90
612;DHT22;293;53.888;11.464;2022-07-29T02:34:49;12.40;99.90
612;DHT22;293;53.888;11.464;2022-07-29T02:37:18;12.40;99.90
612;DHT22;293;53.888;11.464;2022-07-29T02:39:47;12.40;99.90
612;DHT22;293;53.888;11.464;2022-07-29T02:42:16;12.40;99.90
612;DHT22;293;53.888;11.464;2022-07-29T02:44:43;12.30;99.90
612;DHT22;293;53.888;11.464;2022-07-29T02:47:16;12.30;99.90
612;DHT22;293;53.888;11.464;2022-07-29T02:49:52;12.30;99.90
612;DHT22;293;53.888;11.464;2022-07-29T02:52:24;12.30;99.90
612;DHT22;293;53.888;11.464;2022-07-29T02:54:55;12.30;99.90
612;DHT22;293;53.888;11.464;2022-07-29T02:57:32;12.30;99.90
612;DHT22;293;53.888;11.464;2022-07-29T03:00:03;12.20;99.90
612;DHT22;293;53.888;11.464;2022-07-29T03:02:34;12.20;99.90
612;DHT22;293;53.888;11.464;2022-07-29T03:05:04;12.20;99.90
612;DHT22;293;53.888;11.464;2022-07-29T03:07:34;12.20;99.90
612;DHT22;293;53.888;11.464;2022-07-29T03:10:02;12.30;99.90
612;DHT22;293;53.888;11.464;2022-07-29T03:12:30;12.30;99.90
612;DHT22;293;53.888;11.464;2022-07-29T03:14:59;12.30;99.90
612;DHT22;293;53.888;11.464;2022-07-29T03:17:27;12.40;99.90
612;DHT22;293;53.888;11.464;2022-07-29T03:19:54;12.40;99.90
612;DHT22;293;53.888;11.464;2022-07-29T03:22:23;12.40;99.90
612;DHT22;293;53.888;11.464;2022-07-29T03:24:50;12.40;99.90
612;DHT22;293;53.888;11.464;2022-07-29T03:27:17;12.50;99.90
612;DHT22;293;53.888;11.464;2022-07-29T03:29:44;12.50;99.90
612;DHT22;293;53.888;11.464;2022-07-29T03:32:10;12.50;99.90
612;DHT22;293;53.888;11.464;2022-07-29T03:34:37;12.50;99.90
612;DHT22;293;53.888;11.464;2022-07-29T03:37:05;12.50;99.90
612;DHT22;293;53.888;11.464;2022-07-29T03:39:38;12.50;99.90
612;DHT22;293;53.888;11.464;2022-07-29T03:42:10;12.60;99.90
612;DHT22;293;53.888;11.464;2022-07-29T03:44:37;12.60;99.90
612;DHT22;293;53.888;11.464;2022-07-29T03:47:07;12.70;99.90
612;DHT22;293;53.888;11.464;2022-07-29T03:49:36;12.70;99.90
612;DHT22;293;53.888;11.464;2022-07-29T03:52:04;12.90;99.90
612;DHT22;293;53.888;11.464;2022-07-29T03:54:31;13.10;99.90
612;DHT22;293;53.888;11.464;2022-07-29T03:57:03;13.30;99.90
612;DHT22;293;53.888;11.464;2022-07-29T03:59:32;13.60;99.90
612;DHT22;293;53.888;11.464;2022-07-29T04:02:00;14.00;99.90
612;DHT22;293;53.888;11.464;2022-07-29T04:04:28;14.30;99.80
612;DHT22;293;53.888;11.464;2022-07-29T04:06:55;14.80;99.40
612;DHT22;293;53.888;11.464;2022-07-29T04:09:22;15.10;98.00
612;DHT22;293;53.888;11.464;2022-07-29T04:11:49;15.10;97.50
612;DHT22;293;53.888;11.464;2022-07-29T04:14:17;14.90;97.00
612;DHT22;293;53.888;11.464;2022-07-29T04:16:44;14.80;96.90
612;DHT22;293;53.888;11.464;2022-07-29T04:19:11;14.70;97.40
612;DHT22;293;53.888;11.464;2022-07-29T04:21:38;14.60;97.20
612;DHT22;293;53.888;11.464;2022-07-29T04:24:06;14.60;97.40
612;DHT22;293;53.888;11.464;2022-07-29T04:26:34;14.60;97.50
612;DHT22;293;53.888;11.464;2022-07-29T04:29:01;14.60;97.70
612;DHT22;293;53.888;11.464;2022-07-29T04:31:29;14.80;98.10
612;DHT22;293;53.888;11.464;2022-07-29T04:33:56;15.00;98.00
612;DHT22;293;53.888;11.464;2022-07-29T04:36:23;15.20;97.70
612;DHT22;293;53.888;11.464;2022-07-29T04:38:50;15.30;97.80
612;DHT22;293;53.888;11.464;2022-07-29T04:41:16;15.40;97.30
612;DHT22;293;53.888;11.464;2022-07-29T04:43:43;15.40;97.20
612;DHT22;293;53.888;11.464;2022-07-29T04:46:10;15.50;97.10
612;DHT22;293;53.888;11.464;2022-07-29T04:48:38;15.60;97.00
612;DHT22;293;53.888;11.464;2022-07-29T04:51:05;15.90;97.30
612;DHT22;293;53.888;11.464;2022-07-29T04:53:32;16.50;97.10
612;DHT22;293;53.888;11.464;2022-07-29T04:55:59;17.00;96.00
612;DHT22;293;53.888;11.464;2022-07-29T04:58:26;17.20;95.10
612;DHT22;293;53.888;11.464;2022-07-29T05:00:53;17.40;94.50
612;DHT22;293;53.888;11.464;2022-07-29T05:03:20;17.50;94.20
612;DHT22;293;53.888;11.464;2022-07-29T05:05:48;17.60;94.00
612;DHT22;293;53.888;11.464;2022-07-29T05:08:15;17.80;93.90
612;DHT22;293;53.888;11.464;2022-07-29T05:10:42;18.20;93.60
612;DHT22;293;53.888;11.464;2022-07-29T05:13:09;19.00;92.90
612;DHT22;293;53.888;11.464;2022-07-29T05:15:36;19.40;91.80
612;DHT22;293;53.888;11.464;2022-07-29T05:18:04;19.70;91.20
612;DHT22;293;53.888;11.464;2022-07-29T05:20:31;20.30;91.00
612;DHT22;293;53.888;11.464;2022-07-29T05:23:01;21.40;90.10
612;DHT22;293;53.888;11.464;2022-07-29T05:25:29;22.20;86.80
612;DHT22;293;53.888;11.464;2022-07-29T05:27:56;22.50;83.20
612;DHT22;293;53.888;11.464;2022-07-29T05:30:23;22.40;82.00
612;DHT22;293;53.888;11.464;2022-07-29T05:32:50;22.30;81.90
612;DHT22;293;53.888;11.464;2022-07-29T05:35:17;22.20;81.90
612;DHT22;293;53.888;11.464;2022-07-29T05:37:44;22.10;82.00
612;DHT22;293;53.888;11.464;2022-07-29T05:40:12;22.00;82.10
612;DHT22;293;53.888;11.464;2022-07-29T05:42:39;21.90;82.60
612;DHT22;293;53.888;11.464;2022-07-29T05:45:07;22.20;82.90
612;DHT22;293;53.888;11.464;2022-07-29T05:47:33;22.20;82.10
612;DHT22;293;53.888;11.464;2022-07-29T05:50:00;22.20;82.30
612;DHT22;293;53.888;11.464;2022-07-29T05:52:27;22.20;82.60
612;DHT22;293;53.888;11.464;2022-07-29T05:54:54;22.20;82.80
612;DHT22;293;53.888;11.464;2022-07-29T05:57:23;22.20;82.80
612;DHT22;293;53.888;11.464;2022-07-29T05:59:50;22.40;83.50
612;DHT22;293;53.888;11.464;2022-07-29T06:02:18;22.30;81.80
612;DHT22;293;53.888;11.464;2022-07-29T06:04:45;22.20;82.00
612;DHT22;293;53.888;11.464;2022-07-29T06:07:11;22.10;81.60
612;DHT22;293;53.888;11.464;2022-07-29T06:09:38;22.00;82.40
612;DHT22;293;53.888;11.464;2022-07-29T06:12:05;22.00;82.30
612;DHT22;293;53.888;11.464;2022-07-29T06:14:35;22.40;81.00
612;DHT22;293;53.888;11.464;2022-07-29T06:17:03;23.00;80.10
612;DHT22;293;53.888;11.464;2022-07-29T06:19:31;24.10;77.10
612;DHT22;293;53.888;11.464;2022-07-29T06:22:00;24.50;77.80
612;DHT22;293;53.888;11.464;2022-07-29T06:24:26;25.60;75.80
612;DHT22;293;53.888;11.464;2022-07-29T06:26:53;26.70;74.10
612;DHT22;293;53.888;11.464;2022-07-29T06:29:20;28.10;67.00
612;DHT22;293;53.888;11.464;2022-07-29T06:31:48;29.50;66.10
612;DHT22;293;53.888;11.464;2022-07-29T06:34:15;30.50;61.40
612;DHT22;293;53.888;11.464;2022-07-29T06:36:42;31.30;58.70
612;DHT22;293;53.888;11.464;2022-07-29T06:39:09;31.60;55.90
612;DHT22;293;53.888;11.464;2022-07-29T06:41:36;31.70;56.90
612;DHT22;293;53.888;11.464;2022-07-29T06:44:03;32.20;55.10
612;DHT22;293;53.888;11.464;2022-07-29T06:46:30;33.00;56.30
612;DHT22;293;53.888;11.464;2022-07-29T06:48:59;33.30;53.60
612;DHT22;293;53.888;11.464;2022-07-29T06:51:27;33.40;52.60
612;DHT22;293;53.888;11.464;2022-07-29T06:53:54;32.30;52.40
612;DHT22;293;53.888;11.464;2022-07-29T06:56:22;31.00;54.30
612;DHT22;293;53.888;11.464;2022-07-29T06:58:49;29.80;56.30
612;DHT22;293;53.888;11.464;2022-07-29T07:01:16;28.90;58.10
612;DHT22;293;53.888;11.464;2022-07-29T07:03:43;27.90;59.90
612;DHT22;293;53.888;11.464;2022-07-29T07:06:11;27.20;61.90
612;DHT22;293;53.888;11.464;2022-07-29T07:08:38;26.50;63.40
612;DHT22;293;53.888;11.464;2022-07-29T07:11:05;25.90;65.40
612;DHT22;293;53.888;11.464;2022-07-29T07:13:32;25.50;66.90
612;DHT22;293;53.888;11.464;2022-07-29T07:16:00;25.10;67.60
612;DHT22;293;53.888;11.464;2022-07-29T07:18:27;24.80;67.80
612;DHT22;293;53.888;11.464;2022-07-29T07:20:54;24.50;69.00
612;DHT22;293;53.888;11.464;2022-07-29T07:23:22;24.20;70.40
612;DHT22;293;53.888;11.464;2022-07-29T07:25:50;24.00;70.50
612;DHT22;293;53.888;11.464;2022-07-29T07:28:17;23.80;71.60
612;DHT22;293;53.888;11.464;2022-07-29T07:30:45;23.60;72.00
612;DHT22;293;53.888;11.464;2022-07-29T07:33:11;23.60;72.40
612;DHT22;293;53.888;11.464;2022-07-29T07:35:38;23.50;71.50
612;DHT22;293;53.888;11.464;2022-07-29T07:38:05;23.40;72.70
612;DHT22;293;53.888;11.464;2022-07-29T07:40:33;23.30;73.00
612;DHT22;293;53.888;11.464;2022-07-29T07:43:01;23.30;73.80
612;DHT22;293;53.888;11.464;2022-07-29T07:45:28;23.30;73.10
612;DHT22;293;53.888;11.464;2022-07-29T07:47:55;23.40;73.20
612;DHT22;293;53.888;11.464;2022-07-29T07:50:22;23.40;73.00
612;DHT22;293;53.888;11.464;2022-07-29T07:52:50;23.50;73.70
612;DHT22;293;53.888;11.464;2022-07-29T07:55:18;23.70;73.90
612;DHT22;293;53.888;11.464;2022-07-29T07:57:47;23.90;72.60
612;DHT22;293;53.888;11.464;2022-07-29T08:00:15;24.00;71.90
612;DHT22;293;53.888;11.464;2022-07-29T08:02:42;24.00;72.70
612;DHT22;293;53.888;11.464;2022-07-29T08:05:11;24.00;72.20
612;DHT22;293;53.888;11.464;2022-07-29T08:07:42;23.90;72.90
612;DHT22;293;53.888;11.464;2022-07-29T08:10:09;23.90;72.40
612;DHT22;293;53.888;11.464;2022-07-29T08:12:36;23.80;72.20
612;DHT22;293;53.888;11.464;2022-07-29T08:15:05;23.70;73.00
612;DHT22;293;53.888;11.464;2022-07-29T08:17:33;23.70;73.00
612;DHT22;293;53.888;11.464;2022-07-29T08:20:00;23.70;72.90
612;DHT22;293;53.888;11.464;2022-07-29T08:22:26;23.70;73.10
612;DHT22;293;53.888;11.464;2022-07-29T08:24:53;23.70;73.10
612;DHT22;293;53.888;11.464;2022-07-29T08:27:21;23.80;74.10
612;DHT22;293;53.888;11.464;2022-07-29T08:29:48;23.80;72.70
612;DHT22;293;53.888;11.464;2022-07-29T08:32:17;23.90;73.20
612;DHT22;293;53.888;11.464;2022-07-29T08:34:43;23.90;72.70
612;DHT22;293;53.888;11.464;2022-07-29T08:37:12;23.80;72.70
612;DHT22;293;53.888;11.464;2022-07-29T08:39:39;23.80;73.80
612;DHT22;293;53.888;11.464;2022-07-29T08:42:06;23.90;72.80
612;DHT22;293;53.888;11.464;2022-07-29T08:44:33;23.80;72.50
612;DHT22;293;53.888;11.464;2022-07-29T08:47:01;23.80;73.70
612;DHT22;293;53.888;11.464;2022-07-29T08:49:29;23.80;72.20
612;DHT22;293;53.888;11.464;2022-07-29T08:51:57;23.90;72.60
612;DHT22;293;53.888;11.464;2022-07-29T08:54:25;23.90;72.80
612;DHT22;293;53.888;11.464;2022-07-29T08:56:52;24.00;72.10
612;DHT22;293;53.888;11.464;2022-07-29T08:59:20;24.00;72.20
612;DHT22;293;53.888;11.464;2022-07-29T09:01:48;24.00;72.00
612;DHT22;293;53.888;11.464;2022-07-29T09:04:18;24.00;72.20
612;DHT22;293;53.888;11.464;2022-07-29T09:06:49;24.00;72.00
612;DHT22;293;53.888;11.464;2022-07-29T09:09:17;24.00;71.90
612;DHT22;293;53.888;11.464;2022-07-29T09:11:44;24.10;73.10
612;DHT22;293;53.888;11.464;2022-07-29T09:14:13;24.20;72.30
612;DHT22;293;53.888;11.464;2022-07-29T09:16:48;24.40;71.60
612;DHT22;293;53.888;11.464;2022-07-29T09:19:23;24.60;70.60
612;DHT22;293;53.888;11.464;2022-07-29T09:21:52;24.70;70.60
612;DHT22;293;53.888;11.464;2022-07-29T09:24:38;24.90;70.00
612;DHT22;293;53.888;11.464;2022-07-29T09:27:09;25.10;69.60
612;DHT22;293;53.888;11.464;2022-07-29T09:29:36;25.30;70.10
612;DHT22;293;53.888;11.464;2022-07-29T09:32:08;25.40;69.30
612;DHT22;293;53.888;11.464;2022-07-29T09:34:36;25.20;68.60
612;DHT22;293;53.888;11.464;2022-07-29T09:37:05;25.30;68.60
612;DHT22;293;53.888;11.464;2022-07-29T09:39:34;25.50;68.60
612;DHT22;293;53.888;11.464;2022-07-29T09:42:03;25.70;67.70
612;DHT22;293;53.888;11.464;2022-07-29T09:44:44;25.60;66.50
612;DHT22;293;53.888;11.464;2022-07-29T09:47:14;25.70;67.10
612;DHT22;293;53.888;11.464;2022-07-29T09:49:52;25.60;65.40
612;DHT22;293;53.888;11.464;2022-07-29T09:52:21;25.70;66.30
612;DHT22;293;53.888;11.464;2022-07-29T09:54:48;25.60;66.10
612;DHT22;293;53.888;11.464;2022-07-29T09:57:26;25.60;65.00
612;DHT22;293;53.888;11.464;2022-07-29T09:59:58;25.60;65.20
612;DHT22;293;53.888;11.464;2022-07-29T10:02:29;25.60;65.20
612;DHT22;293;53.888;11.464;2022-07-29T10:04:57;25.60;65.90
612;DHT22;293;53.888;11.464;2022-07-29T10:07:26;25.60;65.10
612;DHT22;293;53.888;11.464;2022-07-29T10:09:54;25.80;65.50
612;DHT22;293;53.888;11.464;2022-07-29T10:12:21;25.90;65.80
612;DHT22;293;53.888;11.464;2022-07-29T10:14:49;25.90;64.10
612;DHT22;293;53.888;11.464;2022-07-29T10:17:17;26.10;64.40
612;DHT22;293;53.888;11.464;2022-07-29T10:19:44;26.10;61.40
612;DHT22;293;53.888;11.464;2022-07-29T10:22:11;26.10;62.80
612;DHT22;293;53.888;11.464;2022-07-29T10:24:40;26.10;63.30
612;DHT22;293;53.888;11.464;2022-07-29T10:27:08;26.10;63.30
612;DHT22;293;53.888;11.464;2022-07-29T10:29:35;26.20;63.00
612;DHT22;293;53.888;11.464;2022-07-29T10:35:18;26.20;62.90
612;DHT22;293;53.888;11.464;2022-07-29T10:37:59;26.10;62.70
612;DHT22;293;53.888;11.464;2022-07-29T10:40:39;26.10;63.50
612;DHT22;293;53.888;11.464;2022-07-29T10:43:28;26.10;64.00
612;DHT22;293;53.888;11.464;2022-07-29T10:45:56;26.20;64.20
612;DHT22;293;53.888;11.464;2022-07-29T10:48:24;26.30;63.20
612;DHT22;293;53.888;11.464;2022-07-29T10:50:56;26.40;63.90
612;DHT22;293;53.888;11.464;2022-07-29T10:53:24;26.50;62.60
612;DHT22;293;53.888;11.464;2022-07-29T10:56:24;26.50;62.70
612;DHT22;293;53.888;11.464;2022-07-29T10:59:23;26.70;63.10
612;DHT22;293;53.888;11.464;2022-07-29T11:01:52;26.80;62.70
612;DHT22;293;53.888;11.464;2022-07-29T11:07:20;26.90;60.40
612;DHT22;293;53.888;11.464;2022-07-29T11:10:19;26.80;59.80
612;DHT22;293;53.888;11.464;2022-07-29T11:12:48;26.80;60.30
612;DHT22;293;53.888;11.464;2022-07-29T11:15:17;26.80;61.10
612;DHT22;293;53.888;11.464;2022-07-29T11:18:07;26.90;62.10
612;DHT22;293;53.888;11.464;2022-07-29T11:20:37;26.90;61.70
612;DHT22;293;53.888;11.464;2022-07-29T11:23:26;26.90;62.80
612;DHT22;293;53.888;11.464;2022-07-29T11:26:13;27.00;61.80
612;DHT22;293;53.888;11.464;2022-07-29T11:28:54;27.10;60.40
612;DHT22;293;53.888;11.464;2022-07-29T11:31:36;27.10;58.90
612;DHT22;293;53.888;11.464;2022-07-29T11:34:21;27.00;59.20
612;DHT22;293;53.888;11.464;2022-07-29T11:37:21;27.00;59.60
612;DHT22;293;53.888;11.464;2022-07-29T11:40:15;26.90;59.70
612;DHT22;293;53.888;11.464;2022-07-29T11:42:44;26.80;60.00
612;DHT22;293;53.888;11.464;2022-07-29T11:45:14;26.60;61.50
612;DHT22;293;53.888;11.464;2022-07-29T11:47:48;26.60;63.10
612;DHT22;293;53.888;11.464;2022-07-29T11:50:18;26.70;63.90
612;DHT22;293;53.888;11.464;2022-07-29T11:52:53;26.80;63.90
612;DHT22;293;53.888;11.464;2022-07-29T11:55:21;27.00;62.90
612;DHT22;293;53.888;11.464;2022-07-29T11:57:50;27.10;61.70
612;DHT22;293;53.888;11.464;2022-07-29T12:00:28;27.00;63.10
612;DHT22;293;53.888;11.464;2022-07-29T12:02:56;27.10;63.00
612;DHT22;293;53.888;11.464;2022-07-29T12:05:32;27.20;63.00
612;DHT22;293;53.888;11.464;2022-07-29T12:08:05;27.40;63.50
612;DHT22;293;53.888;11.464;2022-07-29T12:10:32;27.40;63.20
612;DHT22;293;53.888;11.464;2022-07-29T12:12:59;27.30;63.20
612;DHT22;293;53.888;11.464;2022-07-29T12:15:27;27.40;62.60
612;DHT22;293;53.888;11.464;2022-07-29T12:17:54;27.40;62.60
612;DHT22;293;53.888;11.464;2022-07-29T12:20:25;27.40;62.90
612;DHT22;293;53.888;11.464;2022-07-29T12:22:52;27.50;63.80
612;DHT22;293;53.888;11.464;2022-07-29T12:25:21;27.60;61.90
612;DHT22;293;53.888;11.464;2022-07-29T12:27:57;27.60;62.20
612;DHT22;293;53.888;11.464;2022-07-29T12:30:40;27.70;62.60
612;DHT22;293;53.888;11.464;2022-07-29T12:33:12;27.70;61.80
612;DHT22;293;53.888;11.464;2022-07-29T12:35:40;27.60;63.70
612;DHT22;293;53.888;11.464;2022-07-29T12:38:10;27.60;66.00
612;DHT22;293;53.888;11.464;2022-07-29T12:40:38;27.50;69.50
612;DHT22;293;53.888;11.464;2022-07-29T12:43:09;27.30;71.20
612;DHT22;293;53.888;11.464;2022-07-29T12:45:37;27.10;71.40
612;DHT22;293;53.888;11.464;2022-07-29T12:48:06;26.80;71.90
612;DHT22;293;53.888;11.464;2022-07-29T12:50:35;26.80;72.40
612;DHT22;293;53.888;11.464;2022-07-29T12:53:09;26.90;72.70
612;DHT22;293;53.888;11.464;2022-07-29T12:55:41;26.90;73.50
612;DHT22;293;53.888;11.464;2022-07-29T12:58:08;26.80;72.40
612;DHT22;293;53.888;11.464;2022-07-29T13:00:35;26.70;71.10
612;DHT22;293;53.888;11.464;2022-07-29T13:03:02;26.50;71.10
612;DHT22;293;53.888;11.464;2022-07-29T13:05:42;26.30;71.80
612;DHT22;293;53.888;11.464;2022-07-29T13:08:16;25.90;71.00
612;DHT22;293;53.888;11.464;2022-07-29T13:10:44;25.70;72.00
612;DHT22;293;53.888;11.464;2022-07-29T13:13:13;25.70;73.30
612;DHT22;293;53.888;11.464;2022-07-29T13:15:41;25.70;73.80
612;DHT22;293;53.888;11.464;2022-07-29T13:18:27;25.80;74.30
612;DHT22;293;53.888;11.464;2022-07-29T13:20:56;25.70;73.00
612;DHT22;293;53.888;11.464;2022-07-29T13:23:23;25.70;72.90
612;DHT22;293;53.888;11.464;2022-07-29T13:25:50;25.90;73.20
612;DHT22;293;53.888;11.464;2022-07-29T13:28:17;26.00;70.10
612;DHT22;293;53.888;11.464;2022-07-29T13:30:43;26.00;69.90
612;DHT22;293;53.888;11.464;2022-07-29T13:33:10;26.00;70.20
612;DHT22;293;53.888;11.464;2022-07-29T13:35:37;25.80;71.90
612;DHT22;293;53.888;11.464;2022-07-29T13:38:05;25.90;72.40
612;DHT22;293;53.888;11.464;2022-07-29T13:40:32;25.90;72.40
612;DHT22;293;53.888;11.464;2022-07-29T13:43:00;25.90;74.00
612;DHT22;293;53.888;11.464;2022-07-29T13:45:27;25.80;73.10
612;DHT22;293;53.888;11.464;2022-07-29T13:47:54;25.80;73.20
612;DHT22;293;53.888;11.464;2022-07-29T13:50:21;25.90;73.20
612;DHT22;293;53.888;11.464;2022-07-29T13:52:48;25.90;71.40
612;DHT22;293;53.888;11.464;2022-07-29T13:55:17;26.00;70.30
612;DHT22;293;53.888;11.464;2022-07-29T13:57:45;26.10;69.80
612;DHT22;293;53.888;11.464;2022-07-29T14:00:12;26.30;70.20
612;DHT22;293;53.888;11.464;2022-07-29T14:02:40;26.40;70.60
612;DHT22;293;53.888;11.464;2022-07-29T14:05:08;26.30;70.80
612;DHT22;293;53.888;11.464;2022-07-29T14:07:35;26.40;71.20
612;DHT22;293;53.888;11.464;2022-07-29T14:10:03;26.40;70.70
612;DHT22;293;53.888;11.464;2022-07-29T14:12:31;26.30;71.10
612;DHT22;293;53.888;11.464;2022-07-29T14:14:58;26.40;70.50
612;DHT22;293;53.888;11.464;2022-07-29T14:17:25;26.50;70.90
612;DHT22;293;53.888;11.464;2022-07-29T14:19:51;26.40;70.90
612;DHT22;293;53.888;11.464;2022-07-29T14:22:18;26.50;70.10
612;DHT22;293;53.888;11.464;2022-07-29T14:24:45;26.50;70.70
612;DHT22;293;53.888;11.464;2022-07-29T14:27:12;26.70;70.60
612;DHT22;293;53.888;11.464;2022-07-29T14:29:40;26.80;69.80
612;DHT22;293;53.888;11.464;2022-07-29T14:32:09;26.70;70.60
612;DHT22;293;53.888;11.464;2022-07-29T14:34:37;26.70;70.70
612;DHT22;293;53.888;11.464;2022-07-29T14:37:04;26.60;70.60
612;DHT22;293;53.888;11.464;2022-07-29T14:39:32;26.60;71.40
612;DHT22;293;53.888;11.464;2022-07-29T14:41:59;26.60;70.30
612;DHT22;293;53.888;11.464;2022-07-29T14:44:26;26.60;70.20
612;DHT22;293;53.888;11.464;2022-07-29T14:46:58;26.50;67.90
612;DHT22;293;53.888;11.464;2022-07-29T14:49:26;26.50;70.10
612;DHT22;293;53.888;11.464;2022-07-29T14:51:52;26.50;71.30
612;DHT22;293;53.888;11.464;2022-07-29T14:54:19;26.60;72.20
612;DHT22;293;53.888;11.464;2022-07-29T14:56:46;26.50;72.20
612;DHT22;293;53.888;11.464;2022-07-29T14:59:14;26.30;72.10
612;DHT22;293;53.888;11.464;2022-07-29T15:01:41;26.40;71.70
612;DHT22;293;53.888;11.464;2022-07-29T15:04:10;26.30;72.00
612;DHT22;293;53.888;11.464;2022-07-29T15:06:36;26.20;70.70
612;DHT22;293;53.888;11.464;2022-07-29T15:09:03;26.20;70.80
612;DHT22;293;53.888;11.464;2022-07-29T15:11:30;26.30;71.80
612;DHT22;293;53.888;11.464;2022-07-29T15:13:57;26.40;69.50
612;DHT22;293;53.888;11.464;2022-07-29T15:16:24;26.50;69.20
612;DHT22;293;53.888;11.464;2022-07-29T15:18:51;26.70;61.90
612;DHT22;293;53.888;11.464;2022-07-29T15:21:19;26.80;59.30
612;DHT22;293;53.888;11.464;2022-07-29T15:23:46;26.90;58.70
612;DHT22;293;53.888;11.464;2022-07-29T15:26:12;27.00;58.10
612;DHT22;293;53.888;11.464;2022-07-29T15:28:39;27.10;57.00
612;DHT22;293;53.888;11.464;2022-07-29T15:31:06;27.10;57.30
612;DHT22;293;53.888;11.464;2022-07-29T15:33:34;27.10;57.10
612;DHT22;293;53.888;11.464;2022-07-29T15:36:01;27.10;58.00
612;DHT22;293;53.888;11.464;2022-07-29T15:38:31;27.20;57.20
612;DHT22;293;53.888;11.464;2022-07-29T15:40:58;27.30;57.50
612;DHT22;293;53.888;11.464;2022-07-29T15:43:25;27.30;58.30
612;DHT22;293;53.888;11.464;2022-07-29T15:45:52;27.40;57.10
612;DHT22;293;53.888;11.464;2022-07-29T15:48:37;27.30;57.60
612;DHT22;293;53.888;11.464;2022-07-29T15:51:05;27.20;57.70
612;DHT22;293;53.888;11.464;2022-07-29T15:53:33;27.20;58.20
612;DHT22;293;53.888;11.464;2022-07-29T15:56:00;27.20;58.70
612;DHT22;293;53.888;11.464;2022-07-29T15:58:26;27.20;59.50
612;DHT22;293;53.888;11.464;2022-07-29T16:00:53;27.30;59.20
612;DHT22;293;53.888;11.464;2022-07-29T16:03:20;27.30;59.00
612;DHT22;293;53.888;11.464;2022-07-29T16:05:47;27.30;59.10
612;DHT22;293;53.888;11.464;2022-07-29T16:08:14;27.20;58.90
612;DHT22;293;53.888;11.464;2022-07-29T16:10:42;27.20;59.80
612;DHT22;293;53.888;11.464;2022-07-29T16:13:09;27.10;59.30
612;DHT22;293;53.888;11.464;2022-07-29T16:15:36;27.10;59.10
612;DHT22;293;53.888;11.464;2022-07-29T16:18:03;27.10;59.00
612;DHT22;293;53.888;11.464;2022-07-29T16:20:30;27.10;58.80
612;DHT22;293;53.888;11.464;2022-07-29T16:22:56;27.00;59.30
612;DHT22;293;53.888;11.464;2022-07-29T16:25:23;27.00;59.20
612;DHT22;293;53.888;11.464;2022-07-29T16:27:51;27.00;59.10
612;DHT22;293;53.888;11.464;2022-07-29T16:30:18;26.90;58.80
612;DHT22;293;53.888;11.464;2022-07-29T16:32:47;26.90;58.40
612;DHT22;293;53.888;11.464;2022-07-29T16:35:14;26.90;58.60
612;DHT22;293;53.888;11.464;2022-07-29T16:37:41;26.90;58.50
612;DHT22;293;53.888;11.464;2022-07-29T16:40:08;26.70;58.90